SKBG/BGA METAR and TAF weather

Enter ICAO airport designator
Station Type Date Time Source
SKBG METAR 2019/04/25 04:00 UTC NOAA

SKBG 250400Z 00000KT 9999 FEW010 SCT030 20/20 A3004


Station Type Date Time Source
SKBG Decoded METAR 2019/04/25 04:00 UTC NOAA

Bucaramanga / Palonegro, Colombia (SKBG) 07-06N 073-12W
Apr 25, 2019 - 12:00 AM EDT / 2019.04.25 0400 UTC
Wind: Calm:0
Visibility: greater than 7 mile(s):0
Sky conditions: partly cloudy
Temperature: 68 F (20 C)
Dew Point: 68 F (20 C)
Relative Humidity: 100%
Pressure (altimeter): 30.04 in. Hg (1017 hPa)
ob: SKBG 250400Z 00000KT 9999 FEW010 SCT030 20/20 A3004
cycle: 4

Station Type Date Time Source
SKBG TAF 2019/04/25 06:30 UTC NOAA

TAF SKBG 250430Z 2506/2606 00000KT 9999 SCT010 SCT080
TEMPO 2506/2509 6000 DZ VCFG BKN010
TEMPO 2510/2514 3000 BR BKN005
BECMG 2515/2517 32010KT SCT017 TX27/2519Z TN18/2511Z

Example: see airport list